METAR Data
IDs: Format: Raw Decoded Include TAF

Data at: 1737 UTC 30 Oct 2020

PKMR 301654Z 12017KT 15SM SCT014TCU BKN050 OVC110 27/24 A2975 RMK SHRAB11E20 TCU OHD SLP078 T02740242